Flying Club and Community

Welcome to Pacific Coast Flyers

Welcome to the online home of Pacific Coast Flyers. We are the #1 flying club in San Diego County, operating out of several airports in the San Diego area. It is our mission to provide a safe positive flying experience as well as excellent value for our members.

Pacific Coast Flyers - North County Flying Club

At Pacific Coast Flyers we provide much more than just aircraft rental. With safety events, club parties and barbecues, fly-in events and much more, you’ll see why we prefer to be called an aviation community instead of just your average “flying club”!

Pacific Coast Flyers - North County Flying Club

  • 24/7 Fleet Access
  • Well Equipped Fleet
  • Online Maint Records
  • Online Scheduling
  • Online Payments
  • Low Monthly Dues
  • No Block Deposits
  • Low Wet Rates
  • Diverse Fleet
  • Large Training Library

Local METARs

Palomar - KCRQ
2014/04/24 12:53 KCRQ 241253Z AUTO 00000KT 10SM CLR 13/09 A2994 RMK AO2 SLP138 T01330089 TSNO

Oceanside - KOKB
2014/04/24 12:52 KOKB 241252Z AUTO 00000KT 9SM CLR 09/07 A2995 RMK AO2 SLP140 T00940072

Ramona - KRNM
2014/04/24 12:53 KRNM 241253Z AUTO 00000KT 9SM CLR 06/04 A2996 RMK AO2 SLP139 T00610044 TSNO $

Montgomery - KMYF
2014/04/24 12:53 KMYF 241253Z 00000KT 10SM CLR 12/09 A2996 RMK AO2 SLP141 T01220094

Gillespie - KSEE
2014/04/24 13:15 KSEE 241315Z AUTO 29003KT 8SM CLR 11/08 A2998 RMK AO2

Brown - KSDM
2014/04/24 12:53 KSDM 241253Z AUTO 11004KT 10SM CLR 10/08 A2995 RMK AO2 SLP140 T01000078

PCF Weather Station

 

 none
Featured Aircraft

N812PS - 2010 CZAW Piper Sport

Location: MC CLELLAN-PALOMAR
Equipment: GPS, WAAS, Auto Pilot, TCAS, Glass Cockpit, 2-place intercom
Information: Ballistic Parachute

N5025D - 1978 Bellanca 7CGAA

Location: OCEANSIDE MUNI
Equipment: 2-place intercom
Information: Aerobatic, VFR, Ma...

N733WT - 1977 Cessna C-172

Location: MC CLELLAN-PALOMAR
Equipment: DME, GPS, RNav, WAAS, Marker Beacon, TCAS, 4-place intercom
Information: Garmin GNS530W, Ga...

N8451M - 1970 Cessna C-150

Location: MC CLELLAN-PALOMAR
Equipment: DME, GPS, WAAS, Marker Beacon, TCAS, STOL Equipped, 2-place intercom
Information: Aerobatic

See our Entire Fleet

Instructor Spotlight

101503
Brian Baxter
Safety conscious CFII, MEI and CSIP available evenings and weekends on shor...

Learn to fly with Pacific Coast Flyers

Contact Pacific Coast Flyers TODAY and get started flying with the #1 flying club in San Diego.
Call 877-PC-FLYER (877-723-5937) or click HERE.

Exclusive Promotion from AirPooler